Wrangler — WDD6285 — position and weather

sailwx.info

Track history (hours):
 
Tides and Currents Weather Stations Pressure Air Temp Water Temp Dewpoint Dewpoint Depression Visibility Wind Speed Wind Dir Waves Ship Positions

Wrangler

Owner: Wrangler Inc., Warreton, OR. More information available from US FCC via Universal Licensing System and Coast Guard Vessel Documentation Center.

Last reported at 2018-Jan-24 05:31 UTC. Time now 2018-Jan-24 05:57 UTC.
Position N 46°10' W 123°55'.

Length 22 m.

Type: Ship. MMSI: 367170860.

Date/timePositionNaut miles runAvg speedWind from/ knotsBaromVisibWave heightAir tempDewpointWater temp
2018-Jan-24 05:31N 46°10' W 123°55'0 0.0
2018-Jan-24 05:01N 46°10' W 123°55'0 0.0
2018-Jan-24 04:30N 46°10' W 123°55'0 0.0
2018-Jan-24 04:00N 46°10' W 123°55'0 0.0
2018-Jan-24 03:30N 46°10' W 123°55'0 0.0
2018-Jan-24 03:01N 46°10' W 123°55'0 0.0
2018-Jan-24 02:30N 46°10' W 123°55'0 0.0
2018-Jan-24 02:01N 46°10' W 123°55'0 0.0
2018-Jan-24 01:30N 46°10' W 123°55'0 0.0
2018-Jan-24 01:01N 46°10' W 123°55'0 0.0
2018-Jan-24 00:31N 46°10' W 123°55'0 0.0
2018-Jan-24 00:01N 46°10' W 123°55'0 0.0
2018-Jan-23 23:30N 46°10' W 123°55'0 0.0
2018-Jan-23 23:00N 46°10' W 123°55'0 0.0
2018-Jan-23 22:30N 46°10' W 123°55'1 1.7
2018-Jan-23 22:00N 46°11' W 123°54'4 7.0
2018-Jan-23 21:31N 46°13' W 123°58'3 6.8
2018-Jan-23 21:01N 46°15' W 124°02'3 6.1
2018-Jan-23 20:30N 46°14' W 124°06'5 7.4
2018-Jan-23 19:49N 46°10' W 124°03'2 6.3
2018-Jan-23 19:30N 46°08' W 124°02'1 2.2
2018-Jan-23 19:00N 46°07' W 124°01'1 2.0
2018-Jan-23 18:30N 46°08' W 124°02'1 2.4
2018-Jan-23 18:00N 46°09' W 124°03'1 2.8
2018-Jan-23 17:30N 46°10' W 124°04'1 1.4
2018-Jan-23 17:00N 46°10' W 124°05'1 1.9
2018-Jan-23 16:23N 46°11' W 124°05'1 2.0
2018-Jan-23 16:00N 46°12' W 124°06'1 3.0
2018-Jan-23 15:30N 46°12' W 124°08'1 2.8
2018-Jan-23 15:00N 46°12' W 124°10'1 2.2
2018-Jan-23 14:31N 46°13' W 124°09'2 3.4
2018-Jan-23 14:00N 46°14' W 124°07'3 5.5
2018-Jan-23 13:30N 46°15' W 124°04'4 7.5
2018-Jan-23 13:00N 46°14' W 123°59'4 7.9
2018-Jan-23 12:30N 46°11' W 123°55'2 4.3
2018-Jan-23 12:01N 46°11' W 123°51'0 0.0
2018-Jan-23 11:31N 46°11' W 123°51'0 0.0
2018-Jan-23 11:01N 46°11' W 123°51'0 0.0
2018-Jan-23 10:30N 46°11' W 123°51'0 0.0
2018-Jan-23 10:00N 46°11' W 123°51'0 0.0
2018-Jan-23 09:31N 46°11' W 123°51'0 0.0
2018-Jan-23 09:00N 46°11' W 123°51'0 0.0
2018-Jan-23 08:21N 46°11' W 123°51'0 0.0
2018-Jan-23 08:00N 46°11' W 123°51'0 0.0
2018-Jan-23 07:30N 46°11' W 123°51'0 0.0
2018-Jan-23 07:01N 46°11' W 123°51'0 0.1
2018-Jan-23 06:15N 46°11' W 123°52'0 0.0
2018-Jan-23 06:00N 46°11' W 123°52'0 0.0
2018-Jan-23 05:31N 46°11' W 123°52'0 0.6
2018-Jan-23 04:53N 46°12' W 123°51'1 1.5
2018-Jan-23 04:27N 46°12' W 123°50'0 0.0
2018-Jan-23 04:01N 46°12' W 123°50'0 0.4
2018-Jan-23 03:30N 46°12' W 123°51'3 5.4
2018-Jan-23 03:00N 46°11' W 123°54'1 1.0
2018-Jan-23 02:30N 46°11' W 123°55'2 4.2
2018-Jan-23 01:57N 46°13' W 123°58'3 0.1
2018-Jan-20 22:28N 46°10' W 123°55'0 0.0
2018-Jan-20 22:01N 46°10' W 123°55'0 0.0
2018-Jan-20 21:31N 46°10' W 123°55'0 0.0
2018-Jan-20 20:43N 46°10' W 123°55'0 0.0
2018-Jan-20 20:30N 46°10' W 123°55'0 0.0
2018-Jan-20 20:01N 46°10' W 123°55'0 0.0
2018-Jan-20 19:29N 46°10' W 123°55'0 0.0
2018-Jan-20 19:01N 46°10' W 123°55'0 0.0
2018-Jan-20 18:31N 46°10' W 123°55'0 0.0
2018-Jan-20 18:00N 46°10' W 123°55'0 0.0
2018-Jan-20 17:30N 46°10' W 123°55'0 0.0
2018-Jan-20 17:00N 46°10' W 123°55'0 0.0
2018-Jan-20 16:30N 46°10' W 123°55'0 0.0
2018-Jan-20 16:00N 46°10' W 123°55'0 0.0
2018-Jan-20 15:30N 46°10' W 123°55'0 0.0
2018-Jan-20 15:00N 46°10' W 123°55'0 0.0
2018-Jan-20 14:31N 46°10' W 123°55'0 0.0
2018-Jan-20 14:00N 46°10' W 123°55'0 0.0
2018-Jan-20 13:31N 46°10' W 123°55'0 0.0
2018-Jan-20 13:00N 46°10' W 123°55'0 0.0
2018-Jan-20 12:30N 46°10' W 123°55'0 0.0
2018-Jan-20 12:00N 46°10' W 123°55'0 0.0
2018-Jan-20 11:25N 46°10' W 123°55'0 0.0
2018-Jan-20 11:01N 46°10' W 123°55'0 0.0
2018-Jan-20 10:31N 46°10' W 123°55'0 0.0
2018-Jan-20 10:01N 46°10' W 123°55'0 0.0
2018-Jan-20 09:31N 46°10' W 123°55'0 0.0
2018-Jan-20 09:00N 46°10' W 123°55'0 0.0
2018-Jan-20 08:31N 46°10' W 123°55'0 0.0
2018-Jan-20 08:00N 46°10' W 123°55'0 0.0
2018-Jan-20 07:31N 46°10' W 123°55'0 0.0
2018-Jan-20 07:00N 46°10' W 123°55'0 0.0
2018-Jan-20 06:31N 46°10' W 123°55'0 0.0
2018-Jan-20 06:00N 46°10' W 123°55'0 0.0
2018-Jan-20 05:31N 46°10' W 123°55'0 0.0
2018-Jan-20 05:00N 46°10' W 123°55'0 0.0
2018-Jan-20 04:30N 46°10' W 123°55'0 0.0
2018-Jan-20 04:01N 46°10' W 123°55'0 0.0
2018-Jan-20 03:30N 46°10' W 123°55'0 0.0
2018-Jan-20 03:01N 46°10' W 123°55'0 0.0
2018-Jan-20 02:31N 46°10' W 123°55'0 0.0
2018-Jan-20 02:01N 46°10' W 123°55'0 0.0
2018-Jan-20 01:30N 46°10' W 123°55'0 0.0
2018-Jan-20 01:00N 46°10' W 123°55'0 0.0
2018-Jan-20 00:10N 46°10' W 123°55'0 0.0
2018-Jan-19 23:45N 46°10' W 123°55'0 0.0
2018-Jan-19 23:31N 46°10' W 123°55'0 0.0
2018-Jan-19 23:00N 46°10' W 123°55'0 0.0
2018-Jan-19 21:57N 46°10' W 123°55'0 0.0
2018-Jan-19 21:25N 46°10' W 123°55'0 0.0
2018-Jan-19 21:00N 46°10' W 123°55'0 0.0
2018-Jan-19 20:30N 46°10' W 123°55'0 0.0
2018-Jan-19 20:01N 46°10' W 123°55'0 0.0
2018-Jan-19 19:30N 46°10' W 123°55'0 0.0
2018-Jan-19 19:00N 46°10' W 123°55'0 0.0
2018-Jan-19 18:30N 46°10' W 123°55'0 0.0
2018-Jan-19 18:00N 46°10' W 123°55'0 0.0
2018-Jan-19 17:30N 46°10' W 123°55'0 0.0
2018-Jan-19 17:00N 46°10' W 123°55'0 0.0
2018-Jan-19 16:30N 46°10' W 123°55'0 0.0
2018-Jan-19 16:00N 46°10' W 123°55'0 0.0
2018-Jan-19 15:30N 46°10' W 123°55'0 0.0
2018-Jan-19 15:01N 46°10' W 123°55'0 0.0
2018-Jan-19 14:31N 46°10' W 123°55'0 0.0
2018-Jan-19 14:01N 46°10' W 123°55'0 0.0
2018-Jan-19 13:31N 46°10' W 123°55'0 0.0
2018-Jan-19 13:00N 46°10' W 123°55'0 0.0
2018-Jan-19 12:31N 46°10' W 123°55'0 0.0
2018-Jan-19 12:00N 46°10' W 123°55'0 0.0
2018-Jan-19 11:30N 46°10' W 123°55'0 0.0
2018-Jan-19 11:00N 46°10' W 123°55'0 0.0
2018-Jan-19 10:30N 46°10' W 123°55'0 0.0
2018-Jan-19 10:00N 46°10' W 123°55'0 0.0
2018-Jan-19 09:31N 46°10' W 123°55'0 0.0
2018-Jan-19 09:00N 46°10' W 123°55'0 0.0
2018-Jan-19 08:30N 46°10' W 123°55'0 0.0
2018-Jan-19 08:00N 46°10' W 123°55'0 0.0
2018-Jan-19 07:30N 46°10' W 123°55'0 0.0
2018-Jan-19 07:00N 46°10' W 123°55'0 0.0
2018-Jan-19 06:30N 46°10' W 123°55'0 0.0
2018-Jan-19 06:00N 46°10' W 123°55'0 0.0
2018-Jan-19 05:30N 46°10' W 123°55'0 0.0
2018-Jan-19 05:01N 46°10' W 123°55'0 0.0
2018-Jan-19 04:30N 46°10' W 123°55'0 0.0
2018-Jan-19 03:59N 46°10' W 123°55'0 0.0
2018-Jan-19 03:31N 46°10' W 123°55'0 0.0
2018-Jan-19 03:01N 46°10' W 123°55'0 0.0
2018-Jan-19 02:30N 46°10' W 123°55'0 0.0
2018-Jan-19 02:00N 46°10' W 123°55'0 0.0
2018-Jan-19 01:31N 46°10' W 123°55'0 0.0
2018-Jan-19 00:44N 46°10' W 123°55'0 0.0
2018-Jan-19 00:31N 46°10' W 123°55'0 0.0
2018-Jan-19 00:01N 46°10' W 123°55'0 0.0
2018-Jan-18 23:31N 46°10' W 123°55'0 0.0
2018-Jan-18 23:00N 46°10' W 123°55'0 0.0
2018-Jan-18 22:31N 46°10' W 123°55'0 0.0
2018-Jan-18 22:00N 46°10' W 123°55'0 0.0
2018-Jan-18 21:31N 46°10' W 123°55'0 0.0
2018-Jan-18 20:49N 46°10' W 123°55'0 0.0
2018-Jan-18 20:31N 46°10' W 123°55'0 0.0
2018-Jan-18 20:00N 46°10' W 123°55'0 0.0
2018-Jan-18 19:30N 46°10' W 123°55'0 0.0
2018-Jan-18 19:00N 46°10' W 123°55'0 0.0
2018-Jan-18 18:30N 46°10' W 123°55'0 0.0
2018-Jan-18 18:01N 46°10' W 123°55'0 0.0
2018-Jan-18 17:31N 46°10' W 123°55'0 0.0
2018-Jan-18 17:01N 46°10' W 123°55'0 0.0
2018-Jan-18 16:31N 46°10' W 123°55'0 0.0
2018-Jan-18 16:00N 46°10' W 123°55'0 0.0
2018-Jan-18 15:31N 46°10' W 123°55'0 0.0
2018-Jan-18 15:00N 46°10' W 123°55'0 0.0
2018-Jan-18 14:30N 46°10' W 123°55'0 0.0
2018-Jan-18 14:00N 46°10' W 123°55'0 0.0
2018-Jan-18 13:30N 46°10' W 123°55'0 0.0
2018-Jan-18 13:00N 46°10' W 123°55'0 0.0
2018-Jan-18 12:30N 46°10' W 123°55'0 0.0
2018-Jan-18 12:00N 46°10' W 123°55'0 0.0
2018-Jan-18 11:30N 46°10' W 123°55'0 0.0
2018-Jan-18 11:00N 46°10' W 123°55'0 0.0
2018-Jan-18 10:30N 46°10' W 123°55'0 0.0
2018-Jan-18 10:01N 46°10' W 123°55'0 0.0
2018-Jan-18 09:31N 46°10' W 123°55'0 0.0
2018-Jan-18 09:01N 46°10' W 123°55'0 0.0
2018-Jan-18 08:30N 46°10' W 123°55'0 0.0
2018-Jan-18 08:01N 46°10' W 123°55'0 0.0
2018-Jan-18 07:31N 46°10' W 123°55'0 0.0
2018-Jan-18 07:00N 46°10' W 123°55'0 0.0
2018-Jan-18 06:30N 46°10' W 123°55'0 0.0
2018-Jan-18 06:01N 46°10' W 123°55'0 0.0
2018-Jan-18 05:31N 46°10' W 123°55'0 0.0
2018-Jan-18 05:00N 46°10' W 123°55'0 0.0
2018-Jan-18 04:30N 46°10' W 123°55'0 0.0
2018-Jan-18 04:01N 46°10' W 123°55'0 0.0
2018-Jan-18 03:30N 46°10' W 123°55'0 0.0
2018-Jan-18 03:00N 46°10' W 123°55'0 0.0
2018-Jan-18 02:31N 46°10' W 123°55'0 0.0
2018-Jan-18 01:49N 46°10' W 123°55'0 0.0
2018-Jan-18 01:21N 46°10' W 123°55'0 0.0
2018-Jan-18 01:00N 46°10' W 123°55'0 0.0
2018-Jan-18 00:01N 46°10' W 123°55'0 0.0
2018-Jan-17 23:57N 46°10' W 123°55'  
Track history (hours):
 
Tides and Currents Weather Stations Pressure Air Temp Water Temp Dewpoint Dewpoint Depression Visibility Wind Speed Wind Dir Waves Ship Positions

Wrangler

Owner: Wrangler Inc., Warreton, OR. More information available from US FCC via Universal Licensing System and Coast Guard Vessel Documentation Center.

Last reported at 2018-Jan-24 05:31 UTC. Time now 2018-Jan-24 05:57 UTC.
Position N 46°10' W 123°55'.

Length 22 m.

Type: Ship. MMSI: 367170860.

Date/timePositionNaut miles runAvg speedWind from/ knotsBaromVisibWave heightAir tempDewpointWater temp
2018-Jan-24 05:31N 46°10' W 123°55'0 0.0
2018-Jan-24 05:01N 46°10' W 123°55'0 0.0
2018-Jan-24 04:30N 46°10' W 123°55'0 0.0
2018-Jan-24 04:00N 46°10' W 123°55'0 0.0
2018-Jan-24 03:30N 46°10' W 123°55'0 0.0
2018-Jan-24 03:01N 46°10' W 123°55'0 0.0
2018-Jan-24 02:30N 46°10' W 123°55'0 0.0
2018-Jan-24 02:01N 46°10' W 123°55'0 0.0
2018-Jan-24 01:30N 46°10' W 123°55'0 0.0
2018-Jan-24 01:01N 46°10' W 123°55'0 0.0
2018-Jan-24 00:31N 46°10' W 123°55'0 0.0
2018-Jan-24 00:01N 46°10' W 123°55'0 0.0
2018-Jan-23 23:30N 46°10' W 123°55'0 0.0
2018-Jan-23 23:00N 46°10' W 123°55'0 0.0
2018-Jan-23 22:30N 46°10' W 123°55'1 1.7
2018-Jan-23 22:00N 46°11' W 123°54'4 7.0
2018-Jan-23 21:31N 46°13' W 123°58'3 6.8
2018-Jan-23 21:01N 46°15' W 124°02'3 6.1
2018-Jan-23 20:30N 46°14' W 124°06'5 7.4
2018-Jan-23 19:49N 46°10' W 124°03'2 6.3
2018-Jan-23 19:30N 46°08' W 124°02'1 2.2
2018-Jan-23 19:00N 46°07' W 124°01'1 2.0
2018-Jan-23 18:30N 46°08' W 124°02'1 2.4
2018-Jan-23 18:00N 46°09' W 124°03'1 2.8
2018-Jan-23 17:30N 46°10' W 124°04'1 1.4
2018-Jan-23 17:00N 46°10' W 124°05'1 1.9
2018-Jan-23 16:23N 46°11' W 124°05'1 2.0
2018-Jan-23 16:00N 46°12' W 124°06'1 3.0
2018-Jan-23 15:30N 46°12' W 124°08'1 2.8
2018-Jan-23 15:00N 46°12' W 124°10'1 2.2
2018-Jan-23 14:31N 46°13' W 124°09'2 3.4
2018-Jan-23 14:00N 46°14' W 124°07'3 5.5
2018-Jan-23 13:30N 46°15' W 124°04'4 7.5
2018-Jan-23 13:00N 46°14' W 123°59'4 7.9
2018-Jan-23 12:30N 46°11' W 123°55'2 4.3
2018-Jan-23 12:01N 46°11' W 123°51'0 0.0
2018-Jan-23 11:31N 46°11' W 123°51'0 0.0
2018-Jan-23 11:01N 46°11' W 123°51'0 0.0
2018-Jan-23 10:30N 46°11' W 123°51'0 0.0
2018-Jan-23 10:00N 46°11' W 123°51'0 0.0
2018-Jan-23 09:31N 46°11' W 123°51'0 0.0
2018-Jan-23 09:00N 46°11' W 123°51'0 0.0
2018-Jan-23 08:21N 46°11' W 123°51'0 0.0
2018-Jan-23 08:00N 46°11' W 123°51'0 0.0
2018-Jan-23 07:30N 46°11' W 123°51'0 0.0
2018-Jan-23 07:01N 46°11' W 123°51'0 0.1
2018-Jan-23 06:15N 46°11' W 123°52'0 0.0
2018-Jan-23 06:00N 46°11' W 123°52'0 0.0
2018-Jan-23 05:31N 46°11' W 123°52'0 0.6
2018-Jan-23 04:53N 46°12' W 123°51'1 1.5
2018-Jan-23 04:27N 46°12' W 123°50'0 0.0
2018-Jan-23 04:01N 46°12' W 123°50'0 0.4
2018-Jan-23 03:30N 46°12' W 123°51'3 5.4
2018-Jan-23 03:00N 46°11' W 123°54'1 1.0
2018-Jan-23 02:30N 46°11' W 123°55'2 4.2
2018-Jan-23 01:57N 46°13' W 123°58'3 0.1
2018-Jan-20 22:28N 46°10' W 123°55'0 0.0
2018-Jan-20 22:01N 46°10' W 123°55'0 0.0
2018-Jan-20 21:31N 46°10' W 123°55'0 0.0
2018-Jan-20 20:43N 46°10' W 123°55'0 0.0
2018-Jan-20 20:30N 46°10' W 123°55'0 0.0
2018-Jan-20 20:01N 46°10' W 123°55'0 0.0
2018-Jan-20 19:29N 46°10' W 123°55'0 0.0
2018-Jan-20 19:01N 46°10' W 123°55'0 0.0
2018-Jan-20 18:31N 46°10' W 123°55'0 0.0
2018-Jan-20 18:00N 46°10' W 123°55'0 0.0
2018-Jan-20 17:30N 46°10' W 123°55'0 0.0
2018-Jan-20 17:00N 46°10' W 123°55'0 0.0
2018-Jan-20 16:30N 46°10' W 123°55'0 0.0
2018-Jan-20 16:00N 46°10' W 123°55'0 0.0
2018-Jan-20 15:30N 46°10' W 123°55'0 0.0
2018-Jan-20 15:00N 46°10' W 123°55'0 0.0
2018-Jan-20 14:31N 46°10' W 123°55'0 0.0
2018-Jan-20 14:00N 46°10' W 123°55'0 0.0
2018-Jan-20 13:31N 46°10' W 123°55'0 0.0
2018-Jan-20 13:00N 46°10' W 123°55'0 0.0
2018-Jan-20 12:30N 46°10' W 123°55'0 0.0
2018-Jan-20 12:00N 46°10' W 123°55'0 0.0
2018-Jan-20 11:25N 46°10' W 123°55'0 0.0
2018-Jan-20 11:01N 46°10' W 123°55'0 0.0
2018-Jan-20 10:31N 46°10' W 123°55'0 0.0
2018-Jan-20 10:01N 46°10' W 123°55'0 0.0
2018-Jan-20 09:31N 46°10' W 123°55'0 0.0
2018-Jan-20 09:00N 46°10' W 123°55'0 0.0
2018-Jan-20 08:31N 46°10' W 123°55'0 0.0
2018-Jan-20 08:00N 46°10' W 123°55'0 0.0
2018-Jan-20 07:31N 46°10' W 123°55'0 0.0
2018-Jan-20 07:00N 46°10' W 123°55'0 0.0
2018-Jan-20 06:31N 46°10' W 123°55'0 0.0
2018-Jan-20 06:00N 46°10' W 123°55'0 0.0
2018-Jan-20 05:31N 46°10' W 123°55'0 0.0
2018-Jan-20 05:00N 46°10' W 123°55'0 0.0
2018-Jan-20 04:30N 46°10' W 123°55'0 0.0
2018-Jan-20 04:01N 46°10' W 123°55'0 0.0
2018-Jan-20 03:30N 46°10' W 123°55'0 0.0
2018-Jan-20 03:01N 46°10' W 123°55'0 0.0
2018-Jan-20 02:31N 46°10' W 123°55'0 0.0
2018-Jan-20 02:01N 46°10' W 123°55'0 0.0
2018-Jan-20 01:30N 46°10' W 123°55'0 0.0
2018-Jan-20 01:00N 46°10' W 123°55'0 0.0
2018-Jan-20 00:10N 46°10' W 123°55'0 0.0
2018-Jan-19 23:45N 46°10' W 123°55'0 0.0
2018-Jan-19 23:31N 46°10' W 123°55'0 0.0
2018-Jan-19 23:00N 46°10' W 123°55'0 0.0
2018-Jan-19 21:57N 46°10' W 123°55'0 0.0
2018-Jan-19 21:25N 46°10' W 123°55'0 0.0
2018-Jan-19 21:00N 46°10' W 123°55'0 0.0
2018-Jan-19 20:30N 46°10' W 123°55'0 0.0
2018-Jan-19 20:01N 46°10' W 123°55'0 0.0
2018-Jan-19 19:30N 46°10' W 123°55'0 0.0
2018-Jan-19 19:00N 46°10' W 123°55'0 0.0
2018-Jan-19 18:30N 46°10' W 123°55'0 0.0
2018-Jan-19 18:00N 46°10' W 123°55'0 0.0
2018-Jan-19 17:30N 46°10' W 123°55'0 0.0
2018-Jan-19 17:00N 46°10' W 123°55'0 0.0
2018-Jan-19 16:30N 46°10' W 123°55'0 0.0
2018-Jan-19 16:00N 46°10' W 123°55'0 0.0
2018-Jan-19 15:30N 46°10' W 123°55'0 0.0
2018-Jan-19 15:01N 46°10' W 123°55'0 0.0
2018-Jan-19 14:31N 46°10' W 123°55'0 0.0
2018-Jan-19 14:01N 46°10' W 123°55'0 0.0
2018-Jan-19 13:31N 46°10' W 123°55'0 0.0
2018-Jan-19 13:00N 46°10' W 123°55'0 0.0
2018-Jan-19 12:31N 46°10' W 123°55'0 0.0
2018-Jan-19 12:00N 46°10' W 123°55'0 0.0
2018-Jan-19 11:30N 46°10' W 123°55'0 0.0
2018-Jan-19 11:00N 46°10' W 123°55'0 0.0
2018-Jan-19 10:30N 46°10' W 123°55'0 0.0
2018-Jan-19 10:00N 46°10' W 123°55'0 0.0
2018-Jan-19 09:31N 46°10' W 123°55'0 0.0
2018-Jan-19 09:00N 46°10' W 123°55'0 0.0
2018-Jan-19 08:30N 46°10' W 123°55'0 0.0
2018-Jan-19 08:00N 46°10' W 123°55'0 0.0
2018-Jan-19 07:30N 46°10' W 123°55'0 0.0
2018-Jan-19 07:00N 46°10' W 123°55'0 0.0
2018-Jan-19 06:30N 46°10' W 123°55'0 0.0
2018-Jan-19 06:00N 46°10' W 123°55'0 0.0
2018-Jan-19 05:30N 46°10' W 123°55'0 0.0
2018-Jan-19 05:01N 46°10' W 123°55'0 0.0
2018-Jan-19 04:30N 46°10' W 123°55'0 0.0
2018-Jan-19 03:59N 46°10' W 123°55'0 0.0
2018-Jan-19 03:31N 46°10' W 123°55'0 0.0
2018-Jan-19 03:01N 46°10' W 123°55'0 0.0
2018-Jan-19 02:30N 46°10' W 123°55'0 0.0
2018-Jan-19 02:00N 46°10' W 123°55'0 0.0
2018-Jan-19 01:31N 46°10' W 123°55'0 0.0
2018-Jan-19 00:44N 46°10' W 123°55'0 0.0
2018-Jan-19 00:31N 46°10' W 123°55'0 0.0
2018-Jan-19 00:01N 46°10' W 123°55'0 0.0
2018-Jan-18 23:31N 46°10' W 123°55'0 0.0
2018-Jan-18 23:00N 46°10' W 123°55'0 0.0
2018-Jan-18 22:31N 46°10' W 123°55'0 0.0
2018-Jan-18 22:00N 46°10' W 123°55'0 0.0
2018-Jan-18 21:31N 46°10' W 123°55'0 0.0
2018-Jan-18 20:49N 46°10' W 123°55'0 0.0
2018-Jan-18 20:31N 46°10' W 123°55'0 0.0
2018-Jan-18 20:00N 46°10' W 123°55'0 0.0
2018-Jan-18 19:30N 46°10' W 123°55'0 0.0
2018-Jan-18 19:00N 46°10' W 123°55'0 0.0
2018-Jan-18 18:30N 46°10' W 123°55'0 0.0
2018-Jan-18 18:01N 46°10' W 123°55'0 0.0
2018-Jan-18 17:31N 46°10' W 123°55'0 0.0
2018-Jan-18 17:01N 46°10' W 123°55'0 0.0
2018-Jan-18 16:31N 46°10' W 123°55'0 0.0
2018-Jan-18 16:00N 46°10' W 123°55'0 0.0
2018-Jan-18 15:31N 46°10' W 123°55'0 0.0
2018-Jan-18 15:00N 46°10' W 123°55'0 0.0
2018-Jan-18 14:30N 46°10' W 123°55'0 0.0
2018-Jan-18 14:00N 46°10' W 123°55'0 0.0
2018-Jan-18 13:30N 46°10' W 123°55'0 0.0
2018-Jan-18 13:00N 46°10' W 123°55'0 0.0
2018-Jan-18 12:30N 46°10' W 123°55'0 0.0
2018-Jan-18 12:00N 46°10' W 123°55'0 0.0
2018-Jan-18 11:30N 46°10' W 123°55'0 0.0
2018-Jan-18 11:00N 46°10' W 123°55'0 0.0
2018-Jan-18 10:30N 46°10' W 123°55'0 0.0
2018-Jan-18 10:01N 46°10' W 123°55'0 0.0
2018-Jan-18 09:31N 46°10' W 123°55'0 0.0
2018-Jan-18 09:01N 46°10' W 123°55'0 0.0
2018-Jan-18 08:30N 46°10' W 123°55'0 0.0
2018-Jan-18 08:01N 46°10' W 123°55'0 0.0
2018-Jan-18 07:31N 46°10' W 123°55'0 0.0
2018-Jan-18 07:00N 46°10' W 123°55'0 0.0
2018-Jan-18 06:30N 46°10' W 123°55'0 0.0
2018-Jan-18 06:01N 46°10' W 123°55'0 0.0
2018-Jan-18 05:31N 46°10' W 123°55'0 0.0
2018-Jan-18 05:00N 46°10' W 123°55'0 0.0
2018-Jan-18 04:30N 46°10' W 123°55'0 0.0
2018-Jan-18 04:01N 46°10' W 123°55'0 0.0
2018-Jan-18 03:30N 46°10' W 123°55'0 0.0
2018-Jan-18 03:00N 46°10' W 123°55'0 0.0
2018-Jan-18 02:31N 46°10' W 123°55'0 0.0
2018-Jan-18 01:49N 46°10' W 123°55'0 0.0
2018-Jan-18 01:21N 46°10' W 123°55'0 0.0
2018-Jan-18 01:00N 46°10' W 123°55'0 0.0
2018-Jan-18 00:01N 46°10' W 123°55'0 0.0
2018-Jan-17 23:57N 46°10' W 123°55'  

Dump ship's entire track history